Time;durP1;ratioP1;P1;durP2;ratioP2;P2;SDS_P1;SDS_P2;PMS_P1;PMS_P2;Temp;Humidity;BMP_temperature;BMP_pressure;BME280_temperature;BME280_humidity;BME280_pressure;Samples;Min_cycle;Max_cycle;Signal;HPM_P1;HPM_P2
2021/01/25 00:02:15;;;;;;;13.40;11.80;;;4.00;99.90;;;;;;5122982;27;20235;-89
2021/01/25 00:04:41;;;;;;;13.30;10.80;;;4.10;99.90;;;;;;5121683;27;20564;-87
2021/01/25 00:07:08;;;;;;;12.73;11.20;;;4.10;99.90;;;;;;5119647;27;20186;-89
2021/01/25 00:09:37;;;;;;;10.93;9.80;;;4.10;99.90;;;;;;5118839;27;20204;-87
2021/01/25 00:12:03;;;;;;;14.03;11.33;;;4.10;99.90;;;;;;5119027;27;20626;-87
2021/01/25 00:14:28;;;;;;;12.03;10.83;;;4.00;99.90;;;;;;5121780;27;20205;-89
2021/01/25 00:16:54;;;;;;;12.07;10.53;;;4.00;99.90;;;;;;5136985;27;20177;-90
2021/01/25 00:19:20;;;;;;;13.57;11.53;;;4.00;99.90;;;;;;5118518;27;20174;-88
2021/01/25 00:21:45;;;;;;;12.90;11.20;;;4.10;99.90;;;;;;5117890;27;20171;-87
2021/01/25 00:24:12;;;;;;;12.50;11.20;;;4.10;99.90;;;;;;5119684;27;20281;-87
2021/01/25 00:26:38;;;;;;;13.50;11.20;;;4.10;99.90;;;;;;5136756;27;20253;-88
2021/01/25 00:29:04;;;;;;;11.63;10.13;;;4.10;99.90;;;;;;5111569;28;20223;-88
2021/01/25 00:31:30;;;;;;;14.40;11.37;;;4.20;99.90;;;;;;5086493;28;20180;-88
2021/01/25 00:33:56;;;;;;;14.73;11.87;;;4.20;99.90;;;;;;5077598;28;20175;-90
2021/01/25 00:36:22;;;;;;;13.07;11.50;;;4.30;99.90;;;;;;5077281;28;20179;-87
2021/01/25 00:38:47;;;;;;;13.97;11.80;;;4.20;99.90;;;;;;5077462;28;20178;-90
2021/01/25 00:41:13;;;;;;;14.20;12.20;;;4.30;99.90;;;;;;5077653;28;20175;-89
2021/01/25 00:43:39;;;;;;;13.83;11.90;;;4.50;99.90;;;;;;5077736;28;20168;-87
2021/01/25 00:46:04;;;;;;;14.53;11.50;;;4.30;99.90;;;;;;5076976;28;20254;-89
2021/01/25 00:48:30;;;;;;;13.23;10.73;;;4.20;99.90;;;;;;5077401;28;20174;-88
2021/01/25 00:50:55;;;;;;;12.40;10.47;;;4.10;99.90;;;;;;5078066;28;20628;-88
2021/01/25 00:53:21;;;;;;;12.50;11.20;;;4.00;99.90;;;;;;5079285;28;20176;-88
2021/01/25 00:55:47;;;;;;;11.57;10.37;;;4.00;99.90;;;;;;5097731;28;20211;-89
2021/01/25 00:58:12;;;;;;;14.03;10.53;;;4.20;99.90;;;;;;5079170;28;20228;-89
2021/01/25 01:00:38;;;;;;;12.90;10.77;;;4.10;99.90;;;;;;5077075;28;20183;-88
2021/01/25 01:03:05;;;;;;;12.80;10.77;;;4.10;99.90;;;;;;5095164;28;20171;-88
2021/01/25 01:05:31;;;;;;;13.10;10.20;;;4.00;99.90;;;;;;5077192;28;20179;-87
2021/01/25 01:07:57;;;;;;;10.83;9.33;;;4.10;99.90;;;;;;5094691;28;20178;-87
2021/01/25 01:10:23;;;;;;;9.40;7.87;;;3.90;99.90;;;;;;5076590;28;20187;-89
2021/01/25 01:12:49;;;;;;;11.57;9.00;;;3.90;99.90;;;;;;5076989;28;20171;-89
2021/01/25 01:15:14;;;;;;;10.23;8.70;;;4.00;99.90;;;;;;5076730;28;20215;-87
2021/01/25 01:17:41;;;;;;;10.93;9.70;;;4.00;99.90;;;;;;5076737;28;20168;-87
2021/01/25 01:20:08;;;;;;;10.37;9.03;;;4.10;99.90;;;;;;5093601;28;20205;-87
2021/01/25 01:22:33;;;;;;;10.43;8.97;;;4.00;99.90;;;;;;5076468;28;20209;-87
2021/01/25 01:24:59;;;;;;;10.70;9.47;;;3.90;99.90;;;;;;5076771;28;20172;-88
2021/01/25 01:27:25;;;;;;;11.67;9.77;;;3.90;99.90;;;;;;5076337;28;20176;-87
2021/01/25 01:29:52;;;;;;;14.03;10.27;;;4.00;99.90;;;;;;5076515;28;20180;-87
2021/01/25 01:32:18;;;;;;;15.13;10.27;;;4.10;99.90;;;;;;5076464;28;20167;-88
2021/01/25 01:34:45;;;;;;;13.67;9.97;;;4.10;99.90;;;;;;5076679;28;20208;-86
2021/01/25 01:37:12;;;;;;;14.77;10.70;;;4.30;99.90;;;;;;5076505;28;20179;-86
2021/01/25 01:39:38;;;;;;;12.80;9.70;;;4.30;99.90;;;;;;5076668;28;20632;-89
2021/01/25 01:42:05;;;;;;;12.93;10.63;;;4.30;99.90;;;;;;5076751;28;20182;-87
2021/01/25 01:44:30;;;;;;;12.33;9.57;;;4.30;99.90;;;;;;5076412;28;20636;-88
2021/01/25 01:46:56;;;;;;;12.30;10.60;;;4.30;99.90;;;;;;5076340;28;20187;-89
2021/01/25 01:49:22;;;;;;;11.50;10.30;;;4.30;99.90;;;;;;5076426;28;20170;-88
2021/01/25 01:51:47;;;;;;;12.30;10.27;;;4.40;99.90;;;;;;5076282;28;20176;-88
2021/01/25 01:54:14;;;;;;;11.93;10.03;;;4.40;99.90;;;;;;5076111;28;20206;-87
2021/01/25 01:56:40;;;;;;;10.73;9.33;;;4.50;99.90;;;;;;5076177;28;20567;-90
2021/01/25 01:59:06;;;;;;;10.93;9.50;;;4.50;99.90;;;;;;5075609;28;20274;-89
2021/01/25 02:01:31;;;;;;;11.27;9.27;;;4.70;99.90;;;;;;5093969;28;20215;-88
2021/01/25 02:03:59;;;;;;;12.63;9.97;;;4.70;99.90;;;;;;5076272;28;20168;-88
2021/01/25 02:06:28;;;;;;;12.10;10.77;;;4.80;99.90;;;;;;5076117;28;20175;-87
2021/01/25 02:08:57;;;;;;;11.83;9.70;;;4.80;99.90;;;;;;5076141;28;20171;-88
2021/01/25 02:11:24;;;;;;;11.83;9.73;;;4.80;99.90;;;;;;5075994;28;20187;-88
2021/01/25 02:13:50;;;;;;;12.80;9.83;;;4.90;99.90;;;;;;5075648;28;20543;-88
2021/01/25 02:16:16;;;;;;;13.57;10.47;;;4.90;99.90;;;;;;5075767;28;20180;-87
2021/01/25 02:18:42;;;;;;;13.60;10.67;;;4.80;99.90;;;;;;5075871;28;20179;-88
2021/01/25 02:21:11;;;;;;;14.33;10.30;;;4.70;99.90;;;;;;5075948;28;20233;-89
2021/01/25 02:23:50;;;;;;;11.87;10.33;;;4.80;99.90;;;;;;5075695;28;20190;-91
2021/01/25 02:26:38;;;;;;;13.07;10.60;;;5.00;99.90;;;;;;5075818;28;20171;-88
2021/01/25 02:29:05;;;;;;;13.10;10.27;;;5.20;99.90;;;;;;5075380;28;20180;-86
2021/01/25 02:31:31;;;;;;;11.40;9.63;;;4.90;99.90;;;;;;5076019;28;20693;-88
2021/01/25 02:33:58;;;;;;;13.83;10.37;;;4.80;99.90;;;;;;5076538;28;20627;-87
2021/01/25 02:36:25;;;;;;;11.83;9.73;;;4.80;99.90;;;;;;5076680;28;20183;-87
2021/01/25 02:38:53;;;;;;;12.33;9.90;;;4.90;99.90;;;;;;5076265;28;20172;-88
2021/01/25 02:41:24;;;;;;;12.57;10.40;;;5.00;99.90;;;;;;5076198;28;20251;-88
2021/01/25 02:43:51;;;;;;;11.57;10.33;;;4.90;99.90;;;;;;5075866;28;20172;-88
2021/01/25 02:46:18;;;;;;;11.33;10.17;;;5.00;99.90;;;;;;5079072;28;20211;-88
2021/01/25 02:48:44;;;;;;;13.27;9.93;;;5.00;99.90;;;;;;5098419;28;20168;-88
2021/01/25 02:51:11;;;;;;;11.60;9.70;;;5.10;99.90;;;;;;5080304;28;20181;-88
2021/01/25 02:53:37;;;;;;;14.17;10.33;;;5.00;99.90;;;;;;5078822;28;20651;-88
2021/01/25 02:56:03;;;;;;;12.27;10.27;;;5.20;99.90;;;;;;5079307;28;20301;-89
2021/01/25 02:58:28;;;;;;;11.17;10.00;;;5.20;99.90;;;;;;5079409;28;20175;-87
2021/01/25 03:00:55;;;;;;;13.50;10.67;;;5.20;99.90;;;;;;5079643;28;20213;-87
2021/01/25 03:03:23;;;;;;;12.17;10.87;;;5.10;99.90;;;;;;5079632;28;20192;-89
2021/01/25 03:05:49;;;;;;;12.97;10.70;;;5.10;99.90;;;;;;5096469;28;20172;-87
2021/01/25 03:08:15;;;;;;;12.40;11.10;;;5.10;99.90;;;;;;5078895;28;20171;-89
2021/01/25 03:10:41;;;;;;;13.17;11.10;;;5.00;99.90;;;;;;5079097;28;20183;-89
2021/01/25 03:13:07;;;;;;;11.90;10.70;;;4.90;99.90;;;;;;5078993;28;20176;-88
2021/01/25 03:15:35;;;;;;;13.37;11.00;;;5.00;99.90;;;;;;5079035;28;20226;-88
2021/01/25 03:18:01;;;;;;;13.37;11.70;;;5.20;99.90;;;;;;5079097;28;20207;-88
2021/01/25 03:20:27;;;;;;;13.73;11.57;;;5.10;99.90;;;;;;5078808;28;20220;-87
2021/01/25 03:22:53;;;;;;;14.43;11.63;;;5.00;99.90;;;;;;5078928;28;20279;-88
2021/01/25 03:25:18;;;;;;;16.23;11.33;;;5.00;99.90;;;;;;5078661;28;20171;-87
2021/01/25 03:27:44;;;;;;;13.97;11.07;;;5.00;99.90;;;;;;5078873;28;20262;-89
2021/01/25 03:30:11;;;;;;;12.43;11.23;;;4.80;99.90;;;;;;5078678;28;20184;-87
2021/01/25 03:32:37;;;;;;;12.80;10.30;;;4.70;99.90;;;;;;5078656;28;20183;-88
2021/01/25 03:35:04;;;;;;;12.10;10.57;;;4.70;99.90;;;;;;5078662;28;20208;-87
2021/01/25 03:37:31;;;;;;;13.33;10.37;;;4.60;99.90;;;;;;5078847;28;20278;-87
2021/01/25 03:39:58;;;;;;;15.03;11.37;;;4.80;99.90;;;;;;5078644;28;20186;-86
2021/01/25 03:42:24;;;;;;;13.33;10.80;;;4.70;99.90;;;;;;5094633;28;20172;-87
2021/01/25 03:44:50;;;;;;;12.43;11.13;;;4.80;99.90;;;;;;5102641;28;20180;-88
2021/01/25 03:47:16;;;;;;;12.50;11.20;;;4.90;99.90;;;;;;5090164;28;20228;-85
2021/01/25 03:49:42;;;;;;;13.90;10.93;;;5.00;99.90;;;;;;5081226;28;20213;-89
2021/01/25 03:55:36;;;;;;;11.00;9.90;;;4.80;99.90;;;;;;5097052;28;20203;-87
2021/01/25 03:58:04;;;;;;;13.07;10.30;;;4.60;99.90;;;;;;5077455;28;20167;-89
2021/01/25 04:00:29;;;;;;;13.50;9.93;;;4.70;99.90;;;;;;5078199;28;20179;-86
2021/01/25 04:02:56;;;;;;;11.60;10.00;;;4.60;99.90;;;;;;5078509;28;20212;-89
2021/01/25 04:05:21;;;;;;;12.13;10.00;;;4.60;99.90;;;;;;5078365;28;20278;-89
2021/01/25 04:07:47;;;;;;;11.77;10.30;;;4.70;99.90;;;;;;5078155;28;20229;-89
2021/01/25 04:10:13;;;;;;;11.17;10.07;;;4.80;99.90;;;;;;5077305;28;20187;-89
2021/01/25 04:12:39;;;;;;;13.20;10.97;;;4.90;99.90;;;;;;5078359;28;20578;-89
2021/01/25 04:15:06;;;;;;;14.00;11.40;;;5.10;99.90;;;;;;5079252;28;20247;-90
2021/01/25 04:17:32;;;;;;;13.30;11.23;;;5.20;99.90;;;;;;5079827;28;20609;-87
2021/01/25 04:19:57;;;;;;;13.83;11.27;;;5.20;99.90;;;;;;5079663;28;20171;-87
2021/01/25 04:22:23;;;;;;;14.37;11.83;;;5.30;99.90;;;;;;5077825;28;20231;-88
2021/01/25 04:24:49;;;;;;;15.77;11.90;;;5.20;99.90;;;;;;5077886;28;20164;-89
2021/01/25 04:27:14;;;;;;;12.50;11.20;;;5.20;99.90;;;;;;5077930;28;20627;-88
2021/01/25 04:29:41;;;;;;;12.73;10.33;;;5.10;99.90;;;;;;5077684;28;20172;-88
2021/01/25 04:32:07;;;;;;;13.00;11.43;;;5.10;99.90;;;;;;5077942;28;20639;-89
2021/01/25 04:34:33;;;;;;;12.83;11.40;;;5.00;99.90;;;;;;5078203;28;20212;-88
2021/01/25 04:36:58;;;;;;;14.00;11.27;;;5.00;99.90;;;;;;5077963;28;20171;-88
2021/01/25 04:39:24;;;;;;;15.10;13.00;;;4.90;99.90;;;;;;5077601;28;20266;-89
2021/01/25 04:41:50;;;;;;;13.70;12.17;;;4.80;99.90;;;;;;5077457;28;20172;-88
2021/01/25 04:44:17;;;;;;;15.20;12.67;;;4.80;99.90;;;;;;5095011;28;20179;-89
2021/01/25 04:46:43;;;;;;;15.07;12.57;;;4.70;99.90;;;;;;5077245;28;20589;-89
2021/01/25 04:49:13;;;;;;;15.00;12.87;;;4.60;99.90;;;;;;5077623;28;20212;-87
2021/01/25 04:51:39;;;;;;;14.90;13.30;;;4.60;99.90;;;;;;5095082;28;20168;-89
2021/01/25 04:54:06;;;;;;;15.63;13.30;;;4.60;99.90;;;;;;5077226;28;20177;-88
2021/01/25 04:56:34;;;;;;;15.23;12.67;;;4.70;99.90;;;;;;5077019;28;20179;-89
2021/01/25 04:59:00;;;;;;;14.17;12.17;;;4.70;99.90;;;;;;5077369;28;20176;-89
2021/01/25 05:01:26;;;;;;;16.13;13.27;;;4.50;99.90;;;;;;5076944;28;20199;-88
2021/01/25 05:03:51;;;;;;;14.83;13.20;;;4.60;99.90;;;;;;5077080;28;20554;-88
2021/01/25 05:06:17;;;;;;;16.00;13.00;;;4.70;99.90;;;;;;5077111;28;20274;-90
2021/01/25 05:08:43;;;;;;;14.20;12.70;;;4.80;99.90;;;;;;5076362;28;20225;-87
2021/01/25 05:11:13;;;;;;;19.03;13.53;;;4.80;99.90;;;;;;5076777;28;20562;-87
2021/01/25 05:13:39;;;;;;;15.30;13.70;;;4.80;99.90;;;;;;5077181;28;20172;-87
2021/01/25 05:16:18;;;;;;;17.40;14.63;;;4.70;99.90;;;;;;5076752;28;20238;-90
2021/01/25 05:18:44;;;;;;;18.93;15.73;;;4.80;99.90;;;;;;5077187;28;20175;-87
2021/01/25 05:21:11;;;;;;;17.50;13.63;;;4.70;99.90;;;;;;5077314;28;20252;-86
2021/01/25 05:23:40;;;;;;;16.43;13.13;;;4.70;99.90;;;;;;5077473;28;20187;-89
2021/01/25 05:26:08;;;;;;;18.00;14.27;;;4.60;99.90;;;;;;5077168;28;20167;-88
2021/01/25 05:28:41;;;;;;;17.53;15.47;;;4.60;99.90;;;;;;5077508;28;20167;-88
2021/01/25 05:31:24;;;;;;;18.20;15.60;;;4.70;99.90;;;;;;5077254;28;20180;-87
2021/01/25 05:33:51;;;;;;;18.13;14.97;;;4.90;99.90;;;;;;5076293;28;20192;-87
2021/01/25 05:36:29;;;;;;;18.00;15.43;;;4.60;99.90;;;;;;5076223;28;20258;-88
2021/01/25 05:38:56;;;;;;;21.00;15.73;;;4.60;99.90;;;;;;5076034;28;20183;-87
2021/01/25 05:41:22;;;;;;;19.27;16.70;;;4.50;99.90;;;;;;5076021;28;20261;-86
2021/01/25 05:43:49;;;;;;;21.27;16.33;;;4.60;99.90;;;;;;5076640;28;20658;-88
2021/01/25 05:46:17;;;;;;;20.17;16.70;;;4.60;99.90;;;;;;5077308;28;20167;-87
2021/01/25 05:48:54;;;;;;;23.67;18.17;;;4.80;99.90;;;;;;5076604;28;20171;-89
2021/01/25 05:51:21;;;;;;;21.93;17.17;;;4.60;99.90;;;;;;5076607;28;20178;-89
2021/01/25 05:53:48;;;;;;;23.93;18.40;;;4.50;99.90;;;;;;5076491;28;20164;-89
2021/01/25 05:56:15;;;;;;;21.03;17.40;;;4.50;99.90;;;;;;5077033;28;20290;-88
2021/01/25 05:58:41;;;;;;;23.17;17.27;;;4.60;99.90;;;;;;5076501;28;20164;-87
2021/01/25 06:01:08;;;;;;;20.73;17.10;;;4.60;99.90;;;;;;5076694;28;20171;-87
2021/01/25 06:03:37;;;;;;;21.73;17.33;;;4.50;99.90;;;;;;5076314;28;20184;-87
2021/01/25 06:06:13;;;;;;;18.60;15.33;;;4.50;99.90;;;;;;5076254;28;20175;-87
2021/01/25 06:08:48;;;;;;;18.00;15.17;;;4.50;99.90;;;;;;5076385;28;20171;-87
2021/01/25 06:11:20;;;;;;;19.10;16.87;;;4.50;99.90;;;;;;5076653;28;20182;-89
2021/01/25 06:14:23;;;;;;;20.07;16.30;;;4.60;99.90;;;;;;5075539;28;20172;-87
2021/01/25 06:16:51;;;;;;;18.43;15.83;;;4.70;99.90;;;;;;5075953;28;20185;-89
2021/01/25 06:19:20;;;;;;;19.20;16.13;;;4.60;99.90;;;;;;5075297;28;20171;-87
2021/01/25 06:21:48;;;;;;;21.57;16.80;;;4.40;99.90;;;;;;5075799;28;20171;-89
2021/01/25 06:24:14;;;;;;;22.77;17.57;;;4.50;99.90;;;;;;5076212;28;20260;-88
2021/01/25 06:26:40;;;;;;;24.40;17.37;;;4.50;99.90;;;;;;5076164;28;20167;-89
2021/01/25 06:29:08;;;;;;;22.33;18.07;;;4.70;99.90;;;;;;5075775;28;20537;-87
2021/01/25 06:31:35;;;;;;;22.27;17.33;;;4.30;99.90;;;;;;5076237;28;20179;-87
2021/01/25 06:34:03;;;;;;;25.93;19.47;;;4.40;99.90;;;;;;5076081;28;20640;-87
2021/01/25 06:36:29;;;;;;;24.50;19.73;;;4.40;99.90;;;;;;5076146;28;20575;-90
2021/01/25 06:38:58;;;;;;;24.53;20.03;;;4.50;99.90;;;;;;5085365;28;20177;-87
2021/01/25 06:41:24;;;;;;;24.87;19.00;;;4.40;99.90;;;;;;5096020;28;20631;-87
2021/01/25 06:43:50;;;;;;;22.87;19.10;;;4.20;99.90;;;;;;5097077;28;20163;-87
2021/01/25 06:46:20;;;;;;;25.40;19.63;;;4.10;99.90;;;;;;5096297;28;20321;-89
2021/01/25 06:48:50;;;;;;;28.20;19.93;;;4.10;99.90;;;;;;5095529;28;20696;-88
2021/01/25 06:51:18;;;;;;;26.60;20.17;;;4.00;99.90;;;;;;5095728;28;20167;-85
2021/01/25 06:53:47;;;;;;;25.17;19.63;;;3.80;99.90;;;;;;5095648;28;20262;-87
2021/01/25 06:56:12;;;;;;;25.70;19.70;;;3.70;99.90;;;;;;5096824;28;20210;-86
2021/01/25 06:58:45;;;;;;;29.20;20.73;;;3.60;99.90;;;;;;5113083;28;20188;-87
2021/01/25 07:01:11;;;;;;;23.10;18.37;;;3.40;99.90;;;;;;5104487;28;20190;-86
2021/01/25 07:04:10;;;;;;;25.00;18.97;;;3.20;99.90;;;;;;5133675;27;20162;-85
2021/01/25 07:06:37;;;;;;;25.73;19.00;;;3.10;99.90;;;;;;5115819;28;20170;-87
2021/01/25 07:09:06;;;;;;;22.10;16.27;;;3.20;99.90;;;;;;5115983;28;20167;-86
2021/01/25 07:11:34;;;;;;;25.53;18.23;;;3.10;99.90;;;;;;5112124;28;20634;-87
2021/01/25 07:13:59;;;;;;;25.93;19.53;;;3.20;99.90;;;;;;5101286;28;20171;-85
2021/01/25 07:16:26;;;;;;;27.97;20.27;;;3.10;99.90;;;;;;5100527;28;20179;-83
2021/01/25 07:18:53;;;;;;;28.63;21.67;;;3.20;99.90;;;;;;5125854;28;20159;-89
2021/01/25 07:21:20;;;;;;;29.97;21.40;;;3.20;99.90;;;;;;5131842;28;20166;-88
2021/01/25 07:23:47;;;;;;;36.07;25.87;;;3.30;99.90;;;;;;5117247;28;20277;-87
2021/01/25 07:26:16;;;;;;;33.90;23.20;;;3.10;99.90;;;;;;5116254;28;20520;-87
2021/01/25 07:28:42;;;;;;;39.93;26.77;;;3.00;99.90;;;;;;5119094;28;20170;-87
2021/01/25 07:31:14;;;;;;;33.03;21.23;;;3.00;99.90;;;;;;5121678;27;20222;-88
2021/01/25 07:33:40;;;;;;;34.93;21.50;;;2.80;99.90;;;;;;5121064;27;20218;-87
2021/01/25 07:36:06;;;;;;;32.63;21.53;;;2.90;99.90;;;;;;5119972;27;20210;-87
2021/01/25 07:38:32;;;;;;;33.87;21.97;;;2.80;99.90;;;;;;5103255;27;20175;-86
2021/01/25 07:40:59;;;;;;;40.40;23.80;;;2.80;99.90;;;;;;5100368;28;20183;-85
2021/01/25 07:43:29;;;;;;;36.27;23.30;;;2.80;99.90;;;;;;5098331;28;20250;-85
2021/01/25 07:46:09;;;;;;;34.90;21.50;;;2.90;99.90;;;;;;5120867;27;20177;-86
2021/01/25 07:48:56;;;;;;;38.77;21.30;;;2.80;99.90;;;;;;5103824;27;20174;-87
2021/01/25 07:51:23;;;;;;;41.53;23.40;;;2.80;99.90;;;;;;5096777;28;20236;-88
2021/01/25 07:53:51;;;;;;;40.73;24.57;;;2.80;99.90;;;;;;5102282;28;20224;-88
2021/01/25 07:56:18;;;;;;;40.47;25.83;;;2.80;99.90;;;;;;5115824;28;20206;-88
2021/01/25 07:58:44;;;;;;;44.73;27.93;;;2.90;99.90;;;;;;5097588;28;20163;-89
2021/01/25 08:01:33;;;;;;;47.53;24.90;;;2.90;99.90;;;;;;5097914;28;20177;-89
2021/01/25 08:04:04;;;;;;;43.00;25.10;;;2.90;99.90;;;;;;5099412;28;20185;-88
2021/01/25 08:06:35;;;;;;;39.07;20.80;;;2.80;99.90;;;;;;5098532;28;20584;-86
2021/01/25 08:09:05;;;;;;;39.00;21.83;;;2.80;99.90;;;;;;5116031;28;20676;-88
2021/01/25 08:11:32;;;;;;;44.97;22.17;;;2.80;99.90;;;;;;5114629;28;20634;-87
2021/01/25 08:13:57;;;;;;;41.33;22.73;;;2.80;99.90;;;;;;5114595;28;20175;-87
2021/01/25 08:16:26;;;;;;;39.93;23.80;;;2.90;99.90;;;;;;5114220;27;20170;-85
2021/01/25 08:19:06;;;;;;;40.47;24.57;;;2.70;99.90;;;;;;5101843;28;20167;-88
2021/01/25 08:21:36;;;;;;;43.63;24.17;;;2.80;99.90;;;;;;5097883;28;20167;-88
2021/01/25 08:24:04;;;;;;;36.47;21.20;;;2.80;99.90;;;;;;5097341;28;20198;-86
2021/01/25 08:26:31;;;;;;;35.93;22.30;;;2.70;99.90;;;;;;5097089;28;20626;-88
2021/01/25 08:29:02;;;;;;;36.63;21.10;;;2.80;99.90;;;;;;5095088;28;20163;-88
2021/01/25 08:31:43;;;;;;;36.30;23.60;;;2.70;99.90;;;;;;5109939;27;20185;-87
2021/01/25 08:34:18;;;;;;;39.20;23.43;;;2.80;99.90;;;;;;5101571;28;20170;-89
2021/01/25 08:36:54;;;;;;;35.60;21.43;;;2.90;99.90;;;;;;5121619;27;20174;-89
2021/01/25 08:39:39;;;;;;;36.73;22.40;;;2.80;99.90;;;;;;5096747;28;20177;-87
2021/01/25 08:42:11;;;;;;;37.03;22.47;;;2.80;99.90;;;;;;5096619;28;20190;-86
2021/01/25 08:44:50;;;;;;;35.73;22.47;;;2.80;99.90;;;;;;5110260;28;20167;-86
2021/01/25 08:47:23;;;;;;;37.73;22.63;;;2.90;99.90;;;;;;5107550;27;20641;-87
2021/01/25 08:49:49;;;;;;;34.87;22.33;;;2.90;99.90;;;;;;5117111;27;20167;-86
2021/01/25 08:52:27;;;;;;;37.93;24.73;;;2.90;99.90;;;;;;5117566;27;20626;-87
2021/01/25 08:55:08;;;;;;;39.00;24.90;;;2.90;99.90;;;;;;5117255;27;20304;-86
2021/01/25 08:57:36;;;;;;;34.53;22.33;;;2.90;99.90;;;;;;5116748;27;20204;-85
2021/01/25 09:00:17;;;;;;;34.83;22.03;;;3.00;99.90;;;;;;5116769;27;20201;-86
2021/01/25 09:02:44;;;;;;;33.70;21.77;;;2.80;99.90;;;;;;5121238;27;20175;-86
2021/01/25 09:05:13;;;;;;;34.73;20.83;;;2.90;99.90;;;;;;5096646;28;20719;-87
2021/01/25 09:07:39;;;;;;;36.67;24.03;;;2.90;99.90;;;;;;5097025;28;20760;-86
2021/01/25 09:10:07;;;;;;;33.43;21.47;;;2.80;99.90;;;;;;5101970;28;20210;-86
2021/01/25 09:12:33;;;;;;;30.00;19.73;;;2.90;99.90;;;;;;5088083;27;20556;-87
2021/01/25 09:14:59;;;;;;;38.00;22.97;;;2.90;99.90;;;;;;5103033;28;20203;-90
2021/01/25 09:17:25;;;;;;;37.07;21.87;;;2.90;99.90;;;;;;5102571;28;20182;-88
2021/01/25 09:19:51;;;;;;;36.83;23.77;;;2.80;99.90;;;;;;5099904;28;20182;-90
2021/01/25 09:22:17;;;;;;;35.77;23.17;;;2.90;99.90;;;;;;5098881;28;20223;-88
2021/01/25 09:24:44;;;;;;;33.20;20.03;;;2.90;99.90;;;;;;5097019;28;20646;-87
2021/01/25 09:27:10;;;;;;;35.27;22.33;;;2.90;99.90;;;;;;5102214;28;20198;-88
2021/01/25 09:29:37;;;;;;;37.10;24.60;;;2.90;99.90;;;;;;5088530;28;20186;-90
2021/01/25 09:32:03;;;;;;;33.33;21.07;;;3.00;99.90;;;;;;5098515;28;20618;-88
2021/01/25 09:34:29;;;;;;;33.00;22.40;;;3.00;99.90;;;;;;5098925;28;20620;-89
2021/01/25 09:36:54;;;;;;;33.83;21.73;;;3.00;99.90;;;;;;5103856;28;20228;-90
2021/01/25 09:39:21;;;;;;;32.30;19.83;;;3.00;99.90;;;;;;5105817;27;20526;-89
2021/01/25 09:41:47;;;;;;;39.87;24.27;;;3.10;99.90;;;;;;5114840;27;20178;-88
2021/01/25 09:44:18;;;;;;;32.47;22.40;;;3.20;99.90;;;;;;5108852;27;20186;-87
2021/01/25 09:46:44;;;;;;;36.00;24.43;;;3.20;99.90;;;;;;5131795;27;20672;-87
2021/01/25 09:49:10;;;;;;;35.57;24.37;;;3.20;99.90;;;;;;5117343;27;20170;-88
2021/01/25 09:51:37;;;;;;;36.67;23.87;;;3.20;99.90;;;;;;5135076;27;20205;-88
2021/01/25 09:54:02;;;;;;;34.97;22.37;;;3.30;99.90;;;;;;5116966;27;20181;-88
2021/01/25 09:56:28;;;;;;;37.60;26.03;;;3.30;99.90;;;;;;5115484;27;20178;-89
2021/01/25 09:58:54;;;;;;;35.33;24.53;;;3.30;99.90;;;;;;5116372;28;20170;-89
2021/01/25 10:01:21;;;;;;;35.63;24.40;;;3.40;99.90;;;;;;5117231;27;20170;-88
2021/01/25 10:03:47;;;;;;;32.73;22.40;;;3.40;99.90;;;;;;5116264;27;20174;-89
2021/01/25 10:06:13;;;;;;;34.77;25.37;;;3.40;99.90;;;;;;5116782;27;20170;-89
2021/01/25 10:08:39;;;;;;;32.63;22.63;;;3.50;99.90;;;;;;5116721;27;20178;-89
2021/01/25 10:11:05;;;;;;;34.67;23.43;;;3.40;99.90;;;;;;5116279;27;20733;-89
2021/01/25 10:13:32;;;;;;;29.03;20.73;;;3.40;99.90;;;;;;5116276;27;20213;-89
2021/01/25 10:15:57;;;;;;;33.67;23.87;;;3.30;99.90;;;;;;5116550;28;20680;-87
2021/01/25 10:18:23;;;;;;;32.83;22.17;;;3.40;99.90;;;;;;5116499;28;20185;-88
2021/01/25 10:20:49;;;;;;;34.43;23.87;;;3.30;99.90;;;;;;5116363;28;20204;-88
2021/01/25 10:23:15;;;;;;;34.10;22.40;;;3.50;99.90;;;;;;5116636;28;20194;-87
2021/01/25 10:25:41;;;;;;;35.50;24.27;;;3.50;99.90;;;;;;5118012;27;20177;-89
2021/01/25 10:28:06;;;;;;;31.87;22.37;;;3.80;99.90;;;;;;5116215;28;20166;-86
2021/01/25 10:30:32;;;;;;;32.77;22.27;;;3.60;99.90;;;;;;5116131;28;21055;-89
2021/01/25 10:32:59;;;;;;;28.93;21.27;;;3.50;99.90;;;;;;5116487;28;20167;-88
2021/01/25 10:35:25;;;;;;;30.00;21.17;;;3.30;99.90;;;;;;5114950;28;20197;-88
2021/01/25 10:37:51;;;;;;;30.80;21.57;;;3.40;99.90;;;;;;5119944;28;20290;-87
2021/01/25 10:40:18;;;;;;;31.70;22.40;;;3.40;99.90;;;;;;5109731;28;20178;-87
2021/01/25 10:42:44;;;;;;;26.77;19.83;;;3.50;99.90;;;;;;5099116;28;20171;-88
2021/01/25 10:45:14;;;;;;;30.03;21.13;;;3.50;99.90;;;;;;5095981;28;20167;-87
2021/01/25 10:47:41;;;;;;;27.60;20.03;;;3.60;99.90;;;;;;5095543;28;20171;-88
2021/01/25 10:50:11;;;;;;;27.83;20.20;;;3.50;99.90;;;;;;5095696;28;20178;-88
2021/01/25 10:52:37;;;;;;;27.87;18.50;;;3.60;99.90;;;;;;5095519;28;20175;-88
2021/01/25 10:55:04;;;;;;;27.47;19.43;;;3.50;99.90;;;;;;5096419;28;20287;-90
2021/01/25 10:57:33;;;;;;;29.07;21.77;;;3.60;99.90;;;;;;5096669;28;20210;-91
2021/01/25 11:00:10;;;;;;;29.47;20.10;;;3.70;99.90;;;;;;5098490;28;20201;-90
2021/01/25 11:02:36;;;;;;;27.23;20.87;;;3.80;99.90;;;;;;5095550;28;20170;-90
2021/01/25 11:05:06;;;;;;;28.70;20.73;;;3.90;99.90;;;;;;5096464;28;20615;-91
2021/01/25 11:07:33;;;;;;;32.03;20.33;;;4.00;99.90;;;;;;5100556;28;20319;-90
2021/01/25 11:09:58;;;;;;;27.20;20.40;;;4.10;99.90;;;;;;5099091;28;20227;-92
2021/01/25 11:12:26;;;;;;;30.10;21.93;;;4.00;99.90;;;;;;5101505;28;20208;-88
2021/01/25 11:14:51;;;;;;;26.03;19.80;;;4.00;99.90;;;;;;5100907;28;20238;-91
2021/01/25 11:17:18;;;;;;;29.33;21.07;;;4.00;99.90;;;;;;5099406;28;20217;-88
2021/01/25 11:19:43;;;;;;;29.77;21.53;;;4.10;99.90;;;;;;5099027;28;20186;-88
2021/01/25 11:22:09;;;;;;;26.30;19.90;;;4.20;99.90;;;;;;5098712;28;20174;-88
2021/01/25 11:24:34;;;;;;;29.23;21.03;;;4.40;99.90;;;;;;5100696;28;20181;-89
2021/01/25 11:27:03;;;;;;;28.83;21.47;;;4.50;99.90;;;;;;5101547;28;20174;-90
2021/01/25 11:29:30;;;;;;;28.83;20.80;;;4.60;99.90;;;;;;5099566;28;20588;-87
2021/01/25 11:32:00;;;;;;;30.03;22.40;;;4.80;99.90;;;;;;5103678;28;20617;-86
2021/01/25 11:34:27;;;;;;;28.67;21.00;;;4.90;99.90;;;;;;5098470;28;20294;-87
2021/01/25 11:36:53;;;;;;;26.67;19.47;;;5.10;99.90;;;;;;5098245;28;20175;-86
2021/01/25 11:39:19;;;;;;;27.40;19.03;;;5.10;99.90;;;;;;5098699;28;20563;-87
2021/01/25 11:41:45;;;;;;;23.80;17.90;;;5.00;99.90;;;;;;5098461;28;20289;-89
2021/01/25 11:44:10;;;;;;;28.37;20.37;;;4.90;99.90;;;;;;5098713;28;20183;-88
2021/01/25 11:46:37;;;;;;;31.50;22.40;;;4.80;99.90;;;;;;5098055;28;20627;-87
2021/01/25 11:49:02;;;;;;;28.60;21.17;;;4.70;99.90;;;;;;5098583;28;20197;-88
2021/01/25 11:51:29;;;;;;;32.87;23.20;;;5.00;99.90;;;;;;5098709;28;20603;-88
2021/01/25 11:53:55;;;;;;;32.57;23.40;;;4.90;99.90;;;;;;5099198;28;20341;-86
2021/01/25 11:56:20;;;;;;;30.13;23.00;;;5.00;99.90;;;;;;5100045;28;20321;-91
2021/01/25 11:58:46;;;;;;;30.60;19.63;;;5.20;99.90;;;;;;5100211;28;20632;-87
2021/01/25 12:01:11;;;;;;;29.50;20.40;;;5.10;99.90;;;;;;5116722;28;20628;-88
2021/01/25 12:03:37;;;;;;;30.57;23.40;;;5.00;99.90;;;;;;5100890;28;20265;-92
2021/01/25 12:06:04;;;;;;;34.90;25.27;;;5.30;99.90;;;;;;5098770;28;20522;-87
2021/01/25 12:08:32;;;;;;;33.77;25.80;;;5.50;99.90;;;;;;5097732;28;20599;-87
2021/01/25 12:10:58;;;;;;;32.57;24.50;;;5.60;99.90;;;;;;5097347;28;20678;-87
2021/01/25 12:13:24;;;;;;;30.83;23.37;;;5.80;99.90;;;;;;5098880;28;20191;-86
2021/01/25 12:15:50;;;;;;;31.33;23.80;;;5.80;99.90;;;;;;5098579;28;20210;-89
2021/01/25 12:18:15;;;;;;;28.60;20.20;;;5.80;99.90;;;;;;5097324;28;20167;-89
2021/01/25 12:20:41;;;;;;;31.07;19.67;;;5.60;99.90;;;;;;5103399;28;20715;-89
2021/01/25 12:23:07;;;;;;;25.93;19.23;;;5.70;99.90;;;;;;5098289;28;20198;-89
2021/01/25 12:25:32;;;;;;;26.73;20.47;;;5.80;99.90;;;;;;5097455;28;20615;-88
2021/01/25 12:27:58;;;;;;;26.17;20.57;;;6.30;99.90;;;;;;5097264;28;20175;-89
2021/01/25 12:30:24;;;;;;;26.60;20.60;;;6.20;99.90;;;;;;5097270;28;20250;-87
2021/01/25 12:32:51;;;;;;;27.37;20.13;;;6.10;99.90;;;;;;5096924;28;20247;-88
2021/01/25 12:35:17;;;;;;;25.60;19.37;;;6.00;99.90;;;;;;5098644;28;20229;-89
2021/01/25 12:37:44;;;;;;;22.30;16.77;;;5.90;99.90;;;;;;5100910;28;20171;-89
2021/01/25 12:40:11;;;;;;;24.50;18.00;;;5.90;99.90;;;;;;5096957;28;20183;-88
2021/01/25 12:42:36;;;;;;;25.03;18.20;;;5.90;99.90;;;;;;5096546;28;20216;-88
2021/01/25 12:45:03;;;;;;;25.40;17.67;;;6.00;99.90;;;;;;5097833;28;20171;-88